Aérodrome :
LOGIN :

S'inscrire | Disclaimer

   EN    FR    IT 

 










Légende :    VFR   VFR Marginal   IFR   IFR Intensif   IFR Très Intensif
Visi : 
Plafond : 
>= 8 km
>= 3000ft
5 à 8 km
1000 à 3000 ft
1500m à 5 km
500 à 1000 ft
800 à 1500m
200 à 500 ft
< 800m
< 200 ft
Symboles :   Orages  Brouillard  Fortes neiges  Fortes précipitations  Vent > 20 kt
SIGMETs :   Divers  Orages  Givrage  Turbulence  Onde Orograph.  Cendres Volcan.






- Altitude de l'aérodrome : 90 ft
- Code IATA : NTE


LFRS - Nantes

DERNIER METAR :
  • 241200Z AUTO 22008KT 9999 FEW029/// BKN044/// BKN052/// //////CB 08/06 Q1002 TEMPO VRB15G25KT 4000 SHRA BKN010 BKN020CB

METARs EXPIRÉS :
  • 241130Z AUTO 25012KT 220V280 9999 -RA FEW025/// SCT030/// BKN038/// ///CB 07/05 Q1002 TEMPO VRB15G25KT 4000 SHRA BKN010 BKN020CB
  • 241100Z AUTO 25015G32KT 210V290 5000 RA BR FEW021/// BKN034/// BKN056/// //////CB 07/04 Q1002 TEMPO 2000 TSRAGS BKN010 BKN020CB
  • 241030Z AUTO 20011KT 9999 SCT038/// BKN068/// BKN100/// //////CB 08/05 Q1002 TEMPO VRB20G35KT 2000 TSRAGS BKN010 BKN020CB
  • 241000Z AUTO 21009KT 9999 FEW043 SCT064 BKN150 09/05 Q1001 TEMPO VRB20G35KT 2000 TSRAGS BKN010 BKN020CB
  • 240930Z AUTO 20009KT CAVOK 08/06 Q1001 TEMPO VRB20G35KT 2000 TSRAGS BKN010 BKN020CB
  • 240900Z AUTO 20006KT CAVOK 07/05 Q1001 TEMPO VRB20G35KT 2000 TSRAGS BKN010 BKN020CB
  • 240830Z AUTO 20006KT 9999 FEW030 BKN088 BKN110 05/05 Q1001 TEMPO VRB20G35KT 2000 TSRAGS BKN010 BKN020CB
  • 240800Z AUTO 19005KT 9999 BKN035 BKN042 03/03 Q1001 TEMPO VRB15G25KT 4000 SHRA SCT012 BKN020CB
  • 240730Z AUTO 17006KT 9999 FEW030 SCT037 02/02 Q1001 TEMPO VRB15G25KT 4000 SHRA SCT012 BKN020CB

TAF TAF LFRS
Valide du 24 à 12h jusqu'au 25 à 18h UTC


241100Z 2412/2518 21005KT 9999 SCT030
TEMPO 2412/2417 VRB15G25KT 4000 SHRA SCT012 BKN020CB
PROB40
TEMPO 2412/2413 VRB20G35KT 2000 TSRAGS BKN010 BKN020CB
TEMPO 2417/2501 4500 SHRA BKN025TCU
BECMG 2501/2503 15012KT 4500 -RA BKN016
TEMPO 2503/2515 17015G30KT 2500 RA BKN009
PROB40
TEMPO 2506/2515 BKN003
FM251500 23013KT 9999 SCT025 BKN035
TEMPO 2515/2518 VRB15G30KT 4500 SHRA BKN025TCU
ATIS : +33 2 40 05 12 74



MET'MAP, la Météo Aéronautique d'un coup d'oeil ! - Copyright ORBIFLY Décembre 2007 - Disclaimer

ORBIFLY MET'MAP TEAM :

Programmation & Développement : Alexandra Zaïnal
Sur une idée originale de : Baudouin d'Aumeries
Soutien technique & logistique : Manuel Goepfert
Assistance : Marc-Olivier Méhu




SOURCES & CREDITS :

   NOAA